Anguilla, Mississippi
Current Conditions -  °F | °C
As of 1:53 PM on Friday 31 Oct 2014 (Local Time) from KGLH Reporting Station
Few Clouds Few Clouds  
Wind Chill: 64°   Ceiling: Unl
Heat Index: 64°   Visibility: 10mi
Dew Point: 46°   Wind: 23mph
Humidity: 52%   Direction: 10°N
Pressure: 30.12"   Gusts: 30mph
Location:  32.97°N, 90.82°W
Report Text: KGLH 311853Z AUTO 01020G26KT 10SM FEW037 18/08 A3012 RMK AO2 PK WND 36029/1755 SLP205 T01780078
Loading
Personal Weather Stations






























Interactive Weather Map
Tropical Storm Tracking
New forecast layout! Learn more

10-Day Weather Forecast

Advertisements
Track Severe Weather on mobile